Time;durP1;ratioP1;P1;durP2;ratioP2;P2;SDS_P1;SDS_P2;PMS_P1;PMS_P2;Temp;Humidity;BMP_temperature;BMP_pressure;BME280_temperature;BME280_humidity;BME280_pressure;Samples;Min_cycle;Max_cycle;Signal;HPM_P1;HPM_P2
2023/07/13 00:01:59;;;;;;;1.00;0.90;;;;;;;;;;10198993;28;20227;-76
2023/07/13 00:07:00;;;;;;;1.30;0.80;;;;;;;;;;10162506;28;1011090;-78
2023/07/13 00:12:02;;;;;;;0.60;0.60;;;;;;;;;;10206105;28;20260;-78
2023/07/13 00:17:03;;;;;;;0.80;0.80;;;;;;;;;;10208820;28;21781;-76
2023/07/13 00:22:04;;;;;;;0.70;0.70;;;;;;;;;;10207871;28;20796;-75
2023/07/13 00:27:05;;;;;;;0.85;0.85;;;;;;;;;;10203680;28;20298;-79
2023/07/13 00:32:09;;;;;;;1.85;1.20;;;;;;;;;;10193084;28;21018;-76
2023/07/13 00:37:11;;;;;;;0.82;0.82;;;;;;;;;;10176159;28;20321;-77
2023/07/13 00:42:12;;;;;;;0.80;0.80;;;;;;;;;;10192084;28;20230;-76
2023/07/13 00:47:13;;;;;;;1.40;0.98;;;;;;;;;;10183663;28;20215;-76
2023/07/13 00:52:14;;;;;;;0.80;0.80;;;;;;;;;;10179227;28;20366;-75
2023/07/13 00:57:21;;;;;;;1.23;0.85;;;;;;;;;;10199885;28;20340;-77
2023/07/13 01:02:22;;;;;;;1.77;0.88;;;;;;;;;;10201825;28;24057;-77
2023/07/13 01:07:23;;;;;;;0.90;0.90;;;;;;;;;;10192558;28;20640;-75
2023/07/13 01:12:24;;;;;;;0.90;0.77;;;;;;;;;;10194097;28;20215;-78
2023/07/13 01:17:26;;;;;;;0.80;0.80;;;;;;;;;;10213345;28;20220;-79
2023/07/13 01:22:27;;;;;;;0.80;0.80;;;;;;;;;;10194190;28;20213;-78
2023/07/13 01:27:28;;;;;;;2.22;1.13;;;;;;;;;;10208762;28;20215;-77
2023/07/13 01:32:31;;;;;;;1.13;1.13;;;;;;;;;;10192951;28;20282;-76
2023/07/13 01:37:33;;;;;;;1.23;0.88;;;;;;;;;;10205633;28;20209;-75
2023/07/13 01:42:34;;;;;;;3.22;1.30;;;;;;;;;;10208226;28;21506;-78
2023/07/13 01:47:35;;;;;;;2.20;1.00;;;;;;;;;;10206627;28;20205;-77
2023/07/13 01:52:36;;;;;;;1.15;1.05;;;;;;;;;;10204008;28;21530;-79
2023/07/13 01:57:37;;;;;;;1.13;1.13;;;;;;;;;;10217764;28;20306;-77
2023/07/13 02:02:38;;;;;;;1.08;1.08;;;;;;;;;;10198031;28;20239;-80
2023/07/13 02:07:40;;;;;;;1.40;1.40;;;;;;;;;;10203737;28;20228;-79
2023/07/13 02:12:41;;;;;;;1.10;1.10;;;;;;;;;;10207431;28;20315;-76
2023/07/13 02:17:42;;;;;;;3.88;1.05;;;;;;;;;;10200756;28;20220;-77
2023/07/13 02:22:43;;;;;;;1.40;1.40;;;;;;;;;;10206400;28;20254;-77
2023/07/13 02:27:44;;;;;;;1.70;1.10;;;;;;;;;;10205926;28;20231;-76
2023/07/13 02:32:45;;;;;;;1.23;1.23;;;;;;;;;;10187605;28;20949;-78
2023/07/13 02:37:46;;;;;;;1.85;1.60;;;;;;;;;;10189487;28;21689;-75
2023/07/13 02:42:47;;;;;;;1.45;1.45;;;;;;;;;;10210983;28;20312;-80
2023/07/13 02:47:48;;;;;;;1.23;1.15;;;;;;;;;;10190948;28;20213;-75
2023/07/13 02:52:49;;;;;;;0.95;0.88;;;;;;;;;;10208045;28;20486;-75
2023/07/13 02:57:51;;;;;;;1.50;1.50;;;;;;;;;;10191403;28;20223;-76
2023/07/13 03:02:53;;;;;;;0.80;0.80;;;;;;;;;;10181936;28;22368;-79
2023/07/13 03:07:54;;;;;;;0.75;0.75;;;;;;;;;;10208923;28;20759;-75
2023/07/13 03:12:56;;;;;;;1.08;1.08;;;;;;;;;;10188458;28;20212;-79
2023/07/13 03:18:00;;;;;;;0.75;0.75;;;;;;;;;;10186850;28;20358;-76
2023/07/13 03:23:03;;;;;;;1.75;1.10;;;;;;;;;;10207452;28;20220;-77
2023/07/13 03:28:05;;;;;;;1.65;1.08;;;;;;;;;;10199959;28;20224;-77
2023/07/13 03:33:07;;;;;;;0.82;0.82;;;;;;;;;;10191476;28;20240;-79
2023/07/13 03:38:08;;;;;;;1.40;1.30;;;;;;;;;;10199320;28;20222;-77
2023/07/13 03:43:09;;;;;;;0.90;0.90;;;;;;;;;;10208819;28;21358;-77
2023/07/13 03:48:10;;;;;;;1.10;0.90;;;;;;;;;;10176017;28;21855;-78
2023/07/13 03:53:12;;;;;;;1.55;0.70;;;;;;;;;;10173976;28;20372;-77
2023/07/13 03:58:26;;;;;;;2.63;0.85;;;;;;;;;;10191873;28;20219;-79
2023/07/13 04:03:28;;;;;;;1.17;0.80;;;;;;;;;;10172041;28;20259;-77
2023/07/13 04:08:33;;;;;;;1.05;1.05;;;;;;;;;;10181631;28;20228;-78
2023/07/13 04:13:35;;;;;;;1.75;0.80;;;;;;;;;;10201892;28;21597;-76
2023/07/13 04:18:36;;;;;;;1.50;1.30;;;;;;;;;;10203691;28;20216;-78
2023/07/13 04:23:37;;;;;;;0.80;0.77;;;;;;;;;;10197431;28;21966;-80
2023/07/13 04:28:38;;;;;;;2.65;1.13;;;;;;;;;;10197867;28;20242;-79
2023/07/13 04:33:39;;;;;;;1.10;1.10;;;;;;;;;;10201641;28;20215;-80
2023/07/13 04:38:41;;;;;;;3.78;1.30;;;;;;;;;;10186292;28;20304;-77
2023/07/13 04:43:43;;;;;;;2.05;1.10;;;;;;;;;;10188195;28;20232;-78
2023/07/13 04:48:44;;;;;;;1.45;1.45;;;;;;;;;;10197987;28;20220;-77
2023/07/13 04:53:45;;;;;;;3.72;1.00;;;;;;;;;;10199284;28;20211;-76
2023/07/13 04:58:46;;;;;;;4.78;1.20;;;;;;;;;;10200658;28;21530;-77
2023/07/13 05:03:47;;;;;;;1.67;1.58;;;;;;;;;;10201823;28;20329;-76
2023/07/13 05:08:48;;;;;;;1.15;1.13;;;;;;;;;;10182337;28;20260;-78
2023/07/13 05:13:49;;;;;;;1.13;1.08;;;;;;;;;;10198675;28;20930;-77
2023/07/13 05:18:50;;;;;;;1.00;1.00;;;;;;;;;;10216613;28;20215;-77
2023/07/13 05:23:51;;;;;;;3.17;1.00;;;;;;;;;;10214226;28;21877;-78
2023/07/13 05:28:52;;;;;;;2.00;1.10;;;;;;;;;;10200365;28;20227;-78
2023/07/13 05:33:53;;;;;;;1.85;1.00;;;;;;;;;;10203978;28;20224;-77
2023/07/13 05:38:54;;;;;;;1.30;1.00;;;;;;;;;;10184020;28;20964;-79
2023/07/13 05:43:55;;;;;;;1.23;1.23;;;;;;;;;;10219418;28;20289;-79
2023/07/13 05:48:56;;;;;;;1.20;1.20;;;;;;;;;;10210586;28;20231;-79
2023/07/13 05:53:57;;;;;;;1.00;1.00;;;;;;;;;;10212309;28;20236;-75
2023/07/13 05:58:58;;;;;;;1.17;1.13;;;;;;;;;;10207857;28;22802;-77
2023/07/13 06:03:59;;;;;;;0.98;0.98;;;;;;;;;;10208792;28;20682;-77
2023/07/13 06:09:00;;;;;;;0.80;0.80;;;;;;;;;;10222505;28;20237;-77
2023/07/13 06:14:01;;;;;;;0.73;0.73;;;;;;;;;;10217263;28;20357;-75
2023/07/13 06:19:02;;;;;;;1.45;0.68;;;;;;;;;;10213342;28;20263;-75
2023/07/13 06:24:04;;;;;;;1.13;0.90;;;;;;;;;;10218494;28;21327;-76
2023/07/13 06:29:05;;;;;;;1.30;0.82;;;;;;;;;;10207723;28;20929;-79
2023/07/13 06:34:06;;;;;;;1.33;0.65;;;;;;;;;;10179090;28;20456;-78
2023/07/13 06:39:07;;;;;;;1.10;0.60;;;;;;;;;;10188291;28;20219;-78
2023/07/13 06:44:08;;;;;;;0.52;0.45;;;;;;;;;;10183644;28;20334;-79
2023/07/13 06:49:09;;;;;;;1.23;0.63;;;;;;;;;;10204878;28;20231;-75
2023/07/13 06:54:10;;;;;;;1.27;0.50;;;;;;;;;;10178195;28;20668;-77
2023/07/13 06:59:11;;;;;;;2.45;0.50;;;;;;;;;;10191789;28;20492;-77
2023/07/13 07:04:12;;;;;;;2.80;0.80;;;;;;;;;;10204496;28;20225;-77
2023/07/13 07:09:14;;;;;;;1.90;0.45;;;;;;;;;;10206869;28;21143;-75
2023/07/13 07:14:15;;;;;;;0.50;0.50;;;;;;;;;;10211364;28;20274;-76
2023/07/13 07:19:17;;;;;;;1.67;0.50;;;;;;;;;;10218863;28;20239;-77
2023/07/13 07:24:18;;;;;;;1.45;0.60;;;;;;;;;;10199618;28;20904;-77
2023/07/13 07:29:19;;;;;;;1.55;0.52;;;;;;;;;;10197282;28;20208;-77
2023/07/13 07:34:20;;;;;;;1.40;0.68;;;;;;;;;;10209933;28;20282;-78
2023/07/13 07:39:21;;;;;;;0.32;0.32;;;;;;;;;;10203966;28;20213;-76
2023/07/13 07:44:22;;;;;;;2.03;0.95;;;;;;;;;;10185712;28;20228;-77
2023/07/13 07:49:23;;;;;;;2.47;0.55;;;;;;;;;;10194059;28;21384;-75
2023/07/13 07:54:24;;;;;;;2.45;0.60;;;;;;;;;;10196271;28;20218;-78
2023/07/13 07:59:25;;;;;;;1.20;0.68;;;;;;;;;;10218750;28;24313;-76
2023/07/13 08:04:26;;;;;;;1.08;0.50;;;;;;;;;;10215146;28;20343;-77
2023/07/13 08:09:27;;;;;;;1.30;0.80;;;;;;;;;;10207895;28;20236;-76
2023/07/13 08:14:29;;;;;;;2.85;1.05;;;;;;;;;;10218410;28;21370;-78
2023/07/13 08:19:30;;;;;;;0.65;0.60;;;;;;;;;;10213985;28;20266;-75
2023/07/13 08:24:31;;;;;;;0.75;0.63;;;;;;;;;;10217952;28;22492;-77
2023/07/13 08:29:32;;;;;;;1.13;0.77;;;;;;;;;;10203165;28;20228;-76
2023/07/13 08:34:33;;;;;;;0.30;0.30;;;;;;;;;;10212169;28;20212;-74
2023/07/13 08:39:34;;;;;;;0.47;0.47;;;;;;;;;;10201728;28;20227;-78
2023/07/13 08:44:45;;;;;;;0.40;0.40;;;;;;;;;;10191020;28;20223;-78
2023/07/13 08:49:46;;;;;;;1.50;0.40;;;;;;;;;;10219798;28;20224;-76
2023/07/13 08:54:49;;;;;;;0.70;0.60;;;;;;;;;;10216896;28;20212;-76
2023/07/13 08:59:51;;;;;;;3.60;0.50;;;;;;;;;;10206875;28;20230;-77
2023/07/13 09:05:01;;;;;;;1.70;0.45;;;;;;;;;;10203781;28;20220;-75
2023/07/13 09:10:10;;;;;;;2.88;0.65;;;;;;;;;;10208970;28;20267;-78
2023/07/13 09:15:24;;;;;;;3.72;0.63;;;;;;;;;;10198740;28;20200;-74
2023/07/13 09:20:33;;;;;;;1.55;0.40;;;;;;;;;;10200356;28;20223;-74
2023/07/13 09:25:35;;;;;;;1.45;0.60;;;;;;;;;;10168666;28;20235;-77
2023/07/13 09:30:39;;;;;;;0.32;0.32;;;;;;;;;;10197498;28;20220;-75
2023/07/13 09:35:41;;;;;;;0.43;0.43;;;;;;;;;;10203570;28;21363;-75
2023/07/13 09:40:48;;;;;;;1.88;0.50;;;;;;;;;;10197641;28;20225;-76
2023/07/13 09:45:49;;;;;;;1.20;0.50;;;;;;;;;;10177020;28;20242;-76
2023/07/13 09:50:55;;;;;;;1.05;0.32;;;;;;;;;;10207851;28;20316;-76
2023/07/13 09:55:56;;;;;;;0.25;0.25;;;;;;;;;;10195564;28;20223;-76
2023/07/13 10:00:59;;;;;;;0.73;0.32;;;;;;;;;;10196701;28;20527;-78
2023/07/13 10:06:13;;;;;;;0.45;0.40;;;;;;;;;;10198173;28;21217;-79
2023/07/13 10:11:22;;;;;;;0.52;0.40;;;;;;;;;;10190093;28;20223;-78
2023/07/13 10:16:25;;;;;;;0.40;0.40;;;;;;;;;;10195806;28;20219;-75
2023/07/13 10:21:29;;;;;;;1.45;0.40;;;;;;;;;;10200712;28;20224;-77
2023/07/13 10:26:32;;;;;;;2.05;0.30;;;;;;;;;;10202030;28;20217;-79
2023/07/13 10:31:33;;;;;;;4.88;0.60;;;;;;;;;;10191067;28;20857;-73
2023/07/13 10:36:45;;;;;;;1.17;0.40;;;;;;;;;;10187408;28;20222;-74
2023/07/13 10:41:47;;;;;;;0.40;0.40;;;;;;;;;;10196188;28;20331;-76
2023/07/13 10:46:48;;;;;;;1.55;0.60;;;;;;;;;;10192732;28;20217;-76
2023/07/13 10:51:51;;;;;;;0.57;0.40;;;;;;;;;;10203271;28;20224;-76
2023/07/13 10:57:11;;;;;;;0.80;0.35;;;;;;;;;;10215042;28;21050;-76
2023/07/13 11:02:15;;;;;;;0.20;0.20;;;;;;;;;;10179546;28;20217;-75
2023/07/13 11:07:27;;;;;;;0.20;0.20;;;;;;;;;;10182440;28;20583;-76
2023/07/13 11:12:48;;;;;;;2.38;0.20;;;;;;;;;;10207629;28;20725;-77
2023/07/13 11:17:51;;;;;;;1.27;0.40;;;;;;;;;;10208783;28;20217;-77
2023/07/13 11:23:11;;;;;;;0.40;0.25;;;;;;;;;;10197092;28;20291;-78
2023/07/13 11:28:12;;;;;;;2.88;0.57;;;;;;;;;;10215902;28;20812;-79
2023/07/13 11:33:18;;;;;;;0.15;0.15;;;;;;;;;;10206156;28;20212;-79
2023/07/13 11:38:20;;;;;;;0.95;0.30;;;;;;;;;;10187542;28;20217;-77
2023/07/13 11:43:25;;;;;;;0.70;0.45;;;;;;;;;;10210426;28;20224;-76
2023/07/13 11:48:31;;;;;;;0.30;0.30;;;;;;;;;;10209955;28;21084;-77
2023/07/13 11:53:38;;;;;;;1.75;0.30;;;;;;;;;;10213313;28;20678;-77
2023/07/13 11:58:40;;;;;;;1.17;0.30;;;;;;;;;;10206111;28;22101;-78
2023/07/13 12:03:41;;;;;;;0.20;0.20;;;;;;;;;;10208578;28;20354;-76
2023/07/13 12:08:42;;;;;;;0.65;0.20;;;;;;;;;;10200540;28;20347;-78
2023/07/13 12:13:44;;;;;;;0.20;0.20;;;;;;;;;;10197730;28;20415;-76
2023/07/13 12:18:48;;;;;;;0.75;0.20;;;;;;;;;;10207838;28;20764;-79
2023/07/13 12:23:50;;;;;;;0.20;0.20;;;;;;;;;;10192042;28;20985;-80
2023/07/13 12:28:56;;;;;;;0.20;0.20;;;;;;;;;;10206406;28;20343;-75
2023/07/13 12:34:18;;;;;;;0.20;0.20;;;;;;;;;;10218827;28;20231;-75
2023/07/13 12:39:19;;;;;;;0.88;0.38;;;;;;;;;;10185149;28;20212;-75
2023/07/13 12:44:31;;;;;;;0.20;0.20;;;;;;;;;;10209840;28;20220;-76
2023/07/13 12:49:34;;;;;;;0.30;0.30;;;;;;;;;;10209890;28;20221;-75
2023/07/13 12:54:39;;;;;;;0.60;0.20;;;;;;;;;;10198160;28;20228;-73
2023/07/13 12:59:41;;;;;;;0.45;0.30;;;;;;;;;;10203288;28;20220;-73
2023/07/13 13:04:43;;;;;;;0.35;0.35;;;;;;;;;;10217563;28;20227;-75
2023/07/13 13:09:44;;;;;;;0.40;0.40;;;;;;;;;;10211263;28;20783;-78
2023/07/13 13:14:45;;;;;;;0.40;0.40;;;;;;;;;;10203579;28;20223;-75
2023/07/13 13:19:47;;;;;;;0.20;0.20;;;;;;;;;;10213537;28;20223;-74
2023/07/13 13:24:48;;;;;;;0.20;0.20;;;;;;;;;;10211934;28;20734;-73
2023/07/13 13:29:54;;;;;;;0.30;0.30;;;;;;;;;;10194449;28;21944;-75
2023/07/13 13:34:55;;;;;;;0.43;0.30;;;;;;;;;;10215750;28;21548;-74
2023/07/13 13:39:56;;;;;;;0.30;0.30;;;;;;;;;;10216489;28;20221;-76
2023/07/13 13:44:59;;;;;;;1.27;0.30;;;;;;;;;;10202799;28;20223;-77
2023/07/13 13:50:00;;;;;;;0.55;0.30;;;;;;;;;;10213821;28;20601;-77
2023/07/13 13:55:01;;;;;;;0.30;0.30;;;;;;;;;;10224657;28;20220;-74
2023/07/13 14:00:02;;;;;;;1.52;0.30;;;;;;;;;;10226172;28;20255;-73
2023/07/13 14:05:07;;;;;;;0.50;0.50;;;;;;;;;;10206890;28;20196;-75
2023/07/13 14:10:12;;;;;;;0.43;0.22;;;;;;;;;;10205446;28;20342;-74
2023/07/13 14:15:18;;;;;;;0.38;0.38;;;;;;;;;;10211512;28;20200;-75
2023/07/13 14:20:20;;;;;;;0.30;0.30;;;;;;;;;;10203169;28;20331;-73
2023/07/13 14:25:21;;;;;;;0.70;0.40;;;;;;;;;;10193606;28;20266;-74
2023/07/13 14:30:22;;;;;;;0.30;0.30;;;;;;;;;;10205598;28;20254;-74
2023/07/13 14:35:23;;;;;;;0.68;0.35;;;;;;;;;;10199867;28;20328;-74
2023/07/13 14:40:29;;;;;;;0.30;0.30;;;;;;;;;;10206627;28;21070;-76
2023/07/13 14:45:31;;;;;;;1.77;0.30;;;;;;;;;;10190010;28;20235;-73
2023/07/13 14:50:34;;;;;;;0.40;0.40;;;;;;;;;;10219345;28;20224;-73
2023/07/13 14:55:35;;;;;;;0.30;0.30;;;;;;;;;;10210819;28;20781;-72
2023/07/13 15:00:37;;;;;;;3.15;0.32;;;;;;;;;;10193996;28;20714;-73
2023/07/13 15:05:40;;;;;;;0.25;0.25;;;;;;;;;;10207717;28;20224;-77
2023/07/13 15:10:41;;;;;;;0.73;0.70;;;;;;;;;;10198087;28;20244;-73
2023/07/13 15:15:43;;;;;;;0.95;0.30;;;;;;;;;;10210915;28;20285;-74
2023/07/13 15:20:46;;;;;;;0.43;0.43;;;;;;;;;;10210486;28;22243;-74
2023/07/13 15:25:47;;;;;;;0.30;0.30;;;;;;;;;;10204643;28;20303;-74
2023/07/13 15:30:49;;;;;;;0.30;0.30;;;;;;;;;;10205724;28;21371;-76
2023/07/13 15:35:50;;;;;;;0.30;0.30;;;;;;;;;;10210584;28;22533;-76
2023/07/13 15:40:52;;;;;;;2.65;0.70;;;;;;;;;;10206040;28;20235;-74
2023/07/13 15:45:53;;;;;;;0.35;0.35;;;;;;;;;;10203921;28;21120;-74
2023/07/13 15:50:55;;;;;;;1.10;0.40;;;;;;;;;;10194276;28;21968;-74
2023/07/13 15:55:57;;;;;;;0.73;0.35;;;;;;;;;;10187002;28;21776;-73
2023/07/13 16:00:58;;;;;;;2.25;0.30;;;;;;;;;;10205262;28;24114;-73
2023/07/13 16:06:00;;;;;;;2.80;0.38;;;;;;;;;;10196041;28;20204;-75
2023/07/13 16:11:02;;;;;;;1.83;0.47;;;;;;;;;;10192609;28;20735;-77
2023/07/13 16:16:09;;;;;;;0.40;0.40;;;;;;;;;;10198967;28;21250;-73
2023/07/13 16:21:14;;;;;;;0.50;0.50;;;;;;;;;;10196538;28;20258;-76
2023/07/13 16:26:23;;;;;;;1.33;0.50;;;;;;;;;;10200813;28;20212;-76
2023/07/13 16:31:24;;;;;;;0.50;0.35;;;;;;;;;;10193988;28;20388;-70
2023/07/13 16:36:25;;;;;;;0.57;0.40;;;;;;;;;;10188058;28;20388;-74
2023/07/13 16:41:26;;;;;;;0.30;0.30;;;;;;;;;;10190436;28;20363;-70
2023/07/13 16:46:27;;;;;;;0.40;0.40;;;;;;;;;;10205831;28;20224;-72
2023/07/13 16:51:29;;;;;;;0.40;0.40;;;;;;;;;;10192431;28;21399;-73
2023/07/13 16:56:34;;;;;;;0.55;0.20;;;;;;;;;;10209921;28;20712;-73
2023/07/13 17:01:36;;;;;;;0.30;0.30;;;;;;;;;;10206697;28;20351;-72
2023/07/13 17:06:37;;;;;;;0.32;0.32;;;;;;;;;;10199245;28;20361;-75
2023/07/13 17:11:39;;;;;;;0.38;0.38;;;;;;;;;;10205358;28;20299;-75
2023/07/13 17:16:41;;;;;;;0.65;0.40;;;;;;;;;;10184731;28;20258;-75
2023/07/13 17:21:44;;;;;;;0.30;0.30;;;;;;;;;;10204483;28;20227;-74
2023/07/13 17:26:46;;;;;;;0.38;0.38;;;;;;;;;;10202225;28;20209;-74
2023/07/13 17:31:49;;;;;;;0.35;0.35;;;;;;;;;;10194547;28;20225;-75
2023/07/13 17:36:50;;;;;;;0.30;0.30;;;;;;;;;;10198194;28;20223;-72
2023/07/13 17:41:51;;;;;;;0.28;0.28;;;;;;;;;;10194766;28;20503;-74
2023/07/13 17:46:52;;;;;;;0.55;0.55;;;;;;;;;;10202058;28;20278;-74
2023/07/13 17:51:53;;;;;;;0.35;0.35;;;;;;;;;;10197399;28;20810;-73
2023/07/13 17:56:54;;;;;;;1.10;0.50;;;;;;;;;;10178580;28;20216;-74
2023/07/13 18:01:55;;;;;;;0.30;0.30;;;;;;;;;;10202535;28;21223;-75
2023/07/13 18:07:05;;;;;;;1.45;0.30;;;;;;;;;;10201880;28;20232;-74
2023/07/13 18:12:09;;;;;;;0.30;0.30;;;;;;;;;;10187558;28;20217;-74
2023/07/13 18:17:13;;;;;;;0.32;0.32;;;;;;;;;;10205627;28;20266;-74
2023/07/13 18:22:15;;;;;;;0.35;0.35;;;;;;;;;;10186033;28;20965;-76
2023/07/13 18:27:17;;;;;;;0.32;0.32;;;;;;;;;;10202219;28;20262;-75
2023/07/13 18:32:20;;;;;;;0.52;0.38;;;;;;;;;;10200357;28;20259;-74
2023/07/13 18:37:22;;;;;;;0.40;0.40;;;;;;;;;;10199475;28;20232;-74
2023/07/13 18:42:24;;;;;;;0.30;0.30;;;;;;;;;;10203938;28;20436;-76
2023/07/13 18:47:29;;;;;;;0.40;0.40;;;;;;;;;;10172207;28;20205;-76
2023/07/13 18:52:30;;;;;;;0.30;0.30;;;;;;;;;;10199684;28;20792;-73
2023/07/13 18:57:31;;;;;;;0.95;0.40;;;;;;;;;;10203686;28;20227;-76
2023/07/13 19:02:32;;;;;;;0.40;0.40;;;;;;;;;;10203546;28;20467;-74
2023/07/13 19:07:33;;;;;;;0.30;0.30;;;;;;;;;;10204976;28;20259;-74
2023/07/13 19:12:35;;;;;;;1.00;0.50;;;;;;;;;;10182513;28;21303;-75
2023/07/13 19:17:36;;;;;;;1.75;0.40;;;;;;;;;;10192611;28;20212;-74
2023/07/13 19:22:37;;;;;;;1.83;0.47;;;;;;;;;;10204115;28;20221;-73
2023/07/13 19:27:38;;;;;;;0.35;0.35;;;;;;;;;;10203652;28;20220;-75
2023/07/13 19:32:41;;;;;;;1.17;0.50;;;;;;;;;;10196750;28;20220;-74
2023/07/13 19:37:42;;;;;;;1.52;0.40;;;;;;;;;;10176535;28;22699;-74
2023/07/13 19:42:43;;;;;;;0.40;0.32;;;;;;;;;;10180827;28;20238;-72
2023/07/13 19:47:45;;;;;;;0.45;0.45;;;;;;;;;;10207096;28;20720;-77
2023/07/13 19:52:50;;;;;;;0.55;0.55;;;;;;;;;;10193548;28;20305;-74
2023/07/13 19:57:52;;;;;;;0.40;0.40;;;;;;;;;;10198776;28;20246;-76
2023/07/13 20:02:53;;;;;;;1.75;0.50;;;;;;;;;;10203488;28;21965;-72
2023/07/13 20:08:00;;;;;;;0.40;0.40;;;;;;;;;;10193906;28;20693;-73
2023/07/13 20:13:01;;;;;;;0.47;0.47;;;;;;;;;;10166717;28;20225;-72
2023/07/13 20:18:04;;;;;;;0.50;0.50;;;;;;;;;;10188833;28;20216;-74
2023/07/13 20:23:10;;;;;;;0.70;0.50;;;;;;;;;;10208528;28;20230;-74
2023/07/13 20:28:11;;;;;;;0.40;0.40;;;;;;;;;;10195502;28;20220;-72
2023/07/13 20:33:15;;;;;;;0.40;0.40;;;;;;;;;;10199594;28;20255;-72
2023/07/13 20:38:17;;;;;;;0.50;0.50;;;;;;;;;;10203062;28;20267;-73
2023/07/13 20:43:19;;;;;;;0.50;0.50;;;;;;;;;;10205733;28;20220;-73
2023/07/13 20:48:28;;;;;;;0.60;0.60;;;;;;;;;;10190253;28;20937;-74
2023/07/13 20:53:29;;;;;;;1.63;0.77;;;;;;;;;;10187181;28;21231;-73
2023/07/13 20:58:31;;;;;;;1.70;0.80;;;;;;;;;;10199689;28;20223;-73
2023/07/13 21:03:32;;;;;;;0.60;0.60;;;;;;;;;;10177365;28;20810;-73
2023/07/13 21:08:33;;;;;;;1.75;1.00;;;;;;;;;;10176906;28;20935;-74
2023/07/13 21:13:34;;;;;;;2.88;2.65;;;;;;;;;;10208055;28;20224;-74
2023/07/13 21:18:37;;;;;;;2.42;1.35;;;;;;;;;;10193206;28;20211;-71
2023/07/13 21:23:39;;;;;;;1.02;1.02;;;;;;;;;;10204679;28;20217;-73
2023/07/13 21:28:41;;;;;;;1.75;0.90;;;;;;;;;;10187704;28;20235;-72
2023/07/13 21:33:42;;;;;;;0.80;0.80;;;;;;;;;;10180181;28;20217;-73
2023/07/13 21:38:45;;;;;;;1.27;0.82;;;;;;;;;;10193248;28;20270;-74
2023/07/13 21:43:46;;;;;;;0.50;0.50;;;;;;;;;;10190838;28;20216;-74
2023/07/13 21:48:47;;;;;;;0.60;0.60;;;;;;;;;;10196693;28;24006;-74
2023/07/13 21:53:49;;;;;;;0.75;0.63;;;;;;;;;;10186410;28;20224;-74
2023/07/13 21:58:50;;;;;;;0.68;0.68;;;;;;;;;;10183028;28;21243;-74
2023/07/13 22:03:55;;;;;;;0.57;0.57;;;;;;;;;;10204032;28;21302;-74
2023/07/13 22:08:59;;;;;;;0.60;0.60;;;;;;;;;;10206529;28;20227;-73
2023/07/13 22:14:00;;;;;;;0.40;0.40;;;;;;;;;;10183293;28;20940;-73
2023/07/13 22:19:06;;;;;;;0.50;0.50;;;;;;;;;;10200999;28;21080;-74
2023/07/13 22:24:16;;;;;;;0.70;0.70;;;;;;;;;;10198221;28;20225;-75
2023/07/13 22:29:23;;;;;;;0.68;0.68;;;;;;;;;;10196843;28;20220;-74
2023/07/13 22:34:24;;;;;;;1.95;0.70;;;;;;;;;;10199354;28;20290;-74
2023/07/13 22:39:27;;;;;;;0.70;0.70;;;;;;;;;;10195270;28;20212;-72
2023/07/13 22:44:28;;;;;;;4.22;0.73;;;;;;;;;;10183384;28;20243;-72
2023/07/13 22:49:32;;;;;;;0.80;0.80;;;;;;;;;;10196501;28;21691;-74
2023/07/13 22:54:33;;;;;;;2.17;0.80;;;;;;;;;;10204437;28;20216;-74
2023/07/13 22:59:36;;;;;;;0.70;0.70;;;;;;;;;;10190016;28;20220;-74
2023/07/13 23:04:37;;;;;;;1.65;0.80;;;;;;;;;;10171446;28;21339;-74
2023/07/13 23:09:38;;;;;;;0.90;0.90;;;;;;;;;;10187680;28;20224;-72
2023/07/13 23:14:39;;;;;;;0.90;0.90;;;;;;;;;;10207050;28;21689;-73
2023/07/13 23:19:40;;;;;;;1.33;0.98;;;;;;;;;;10182034;28;20220;-75
2023/07/13 23:24:41;;;;;;;0.60;0.60;;;;;;;;;;10204316;28;20216;-72
2023/07/13 23:29:42;;;;;;;1.00;1.00;;;;;;;;;;10186817;28;20263;-73
2023/07/13 23:34:43;;;;;;;2.10;0.65;;;;;;;;;;10193975;28;20659;-72
2023/07/13 23:39:44;;;;;;;0.82;0.82;;;;;;;;;;10168044;28;20270;-76
2023/07/13 23:44:46;;;;;;;2.97;0.90;;;;;;;;;;10191975;28;20220;-73
2023/07/13 23:49:47;;;;;;;0.70;0.70;;;;;;;;;;10192782;28;20633;-72
2023/07/13 23:54:48;;;;;;;0.73;0.73;;;;;;;;;;10188434;28;20228;-74
2023/07/13 23:59:49;;;;;;;1.85;0.90;;;;;;;;;;10196738;28;22443;-74
